| time (UTC) | temp C | wind direction | speed KPH | gust KPH | rain 1hr cm | rain 24hr cm | rain mn cm | humidity % | barometer mb |
| 20260509211426 | 28 | 334 | 0.0 | 0.0 | 0.00 | 0.00 | 0.00 | 76 | 1009.5 |
| 20260509210923 | 29 | 70 | 1.6 | 3.2 | 0.00 | 0.00 | 0.00 | 74 | 1009.5 |
| 20260509210420 | 30 | 165 | 1.6 | 4.8 | 0.00 | 0.00 | 0.00 | 69 | 1009.5 |
| 20260509205915 | 30 | 54 | 0.0 | 1.6 | 0.00 | 0.00 | 0.00 | 69 | 1009.5 |
| 20260509205415 | 30 | 38 | 0.0 | 3.2 | 0.00 | 0.00 | 0.00 | 70 | 1009.8 |
| 20260509204911 | 30 | 342 | 0.0 | 0.0 | 0.00 | 0.00 | 0.00 | 70 | 1009.8 |
| 20260509204408 | 30 | 316 | 0.0 | 0.0 | 0.00 | 0.00 | 0.00 | 68 | 1009.8 |
| 20260509203904 | 31 | 46 | 0.0 | 0.0 | 0.00 | 0.00 | 0.00 | 66 | 1009.8 |
| 20260509203400 | 31 | 149 | 0.0 | 1.6 | 0.00 | 0.00 | 0.00 | 65 | 1009.5 |
| 20260509202858 | 31 | 149 | 0.0 | 3.2 | 0.00 | 0.00 | 0.00 | 65 | 1009.5 |
| 20260509202353 | 31 | 199 | 8.0 | 9.7 | 0.00 | 0.00 | 0.00 | 65 | 1009.5 |
| 20260509201849 | 31 | 36 | 0.0 | 3.2 | 0.00 | 0.00 | 0.00 | 67 | 1009.8 |
| 20260509201344 | 31 | 208 | 6.4 | 8.0 | 0.00 | 0.00 | 0.00 | 65 | 1009.8 |
| 20260509200842 | 31 | 208 | 6.4 | 8.0 | 0.00 | 0.00 | 0.00 | 67 | 1009.8 |
| 20260509200336 | 31 | 336 | 0.0 | 0.0 | 0.00 | 0.00 | 0.00 | 66 | 1009.8 |
| 20260509195834 | 31 | 249 | 0.0 | 3.2 | 0.00 | 0.00 | 0.00 | 67 | 1009.8 |
| 20260509195334 | 31 | 29 | 0.0 | 1.6 | 0.00 | 0.00 | 0.00 | 67 | 1010.2 |
| 20260509194834 | 30 | 29 | 0.0 | 0.0 | 0.00 | 0.00 | 0.00 | 68 | 1010.2 |
| 20260509194330 | 30 | 29 | 1.6 | 3.2 | 0.00 | 0.00 | 0.00 | 70 | 1010.2 |
| 20260509193827 | 29 | 298 | 4.8 | 6.4 | 0.00 | 0.00 | 0.00 | 74 | 1010.5 |
| 20260509193327 | 28 | 278 | 0.0 | 0.0 | 0.00 | 0.00 | 0.00 | 78 | 1010.2 |
| 20260509192823 | 27 | 28 | 0.0 | 0.0 | 0.00 | 0.00 | 0.00 | 79 | 1010.5 |
| 20260509192319 | 28 | 0 | 1.6 | 3.2 | 0.00 | 0.00 | 0.00 | 79 | 1010.5 |
| 20260509191814 | 28 | 6 | 3.2 | 4.8 | 0.00 | 0.00 | 0.00 | 77 | 1010.8 |
| 20260509191311 | 28 | 15 | 3.2 | 3.2 | 0.00 | 0.00 | 0.00 | 73 | 1010.8 |
| 20260509190806 | 29 | 26 | 0.0 | 0.0 | 0.00 | 0.00 | 0.00 | 73 | 1010.8 |
| 20260509190304 | 30 | 26 | 0.0 | 0.0 | 0.00 | 0.00 | 0.00 | 71 | 1010.8 |
| 20260509185801 | 30 | 194 | 3.2 | 6.4 | 0.00 | 0.00 | 0.00 | 69 | 1010.8 |
| 20260509185257 | 30 | 120 | 0.0 | 0.0 | 0.00 | 0.00 | 0.00 | 68 | 1010.8 |
| 20260509184755 | 31 | 187 | 6.4 | 8.0 | 0.00 | 0.00 | 0.00 | 68 | 1010.5 |
| 20260509184252 | 30 | 141 | 4.8 | 6.4 | 0.00 | 0.00 | 0.00 | 69 | 1010.5 |
| 20260509183748 | 30 | 150 | 4.8 | 8.0 | 0.00 | 0.00 | 0.00 | 69 | 1011.2 |
| 20260509183244 | 30 | 151 | 6.4 | 9.7 | 0.00 | 0.00 | 0.00 | 69 | 1010.8 |
| 20260509182739 | 30 | 257 | 1.6 | 4.8 | 0.00 | 0.00 | 0.00 | 70 | 1011.2 |
| 20260509182237 | 30 | 255 | 0.0 | 0.0 | 0.00 | 0.00 | 0.00 | 68 | 1011.2 |
| 20260509181734 | 30 | 24 | 1.6 | 6.4 | 0.00 | 0.00 | 0.00 | 69 | 1011.2 |
| 20260509181232 | 29 | 164 | 6.4 | 8.0 | 0.00 | 0.00 | 0.00 | 72 | 1011.5 |
| 20260509180729 | 29 | 27 | 3.2 | 4.8 | 0.00 | 0.00 | 0.00 | 71 | 1011.5 |
| 20260509180225 | 30 | 332 | 3.2 | 4.8 | 0.00 | 0.00 | 0.00 | 70 | 1011.5 |
| 20260509175721 | 30 | 345 | 0.0 | 0.0 | 0.00 | 0.00 | 0.00 | 69 | 1011.5 |
| 20260509175218 | 30 | 15 | 0.0 | 3.2 | 0.00 | 0.00 | 0.00 | 71 | 1011.5 |
| 20260509174714 | 29 | 201 | 1.6 | 4.8 | 0.00 | 0.00 | 0.00 | 72 | 1011.5 |
| 20260509174209 | 28 | 1 | 0.0 | 0.0 | 0.00 | 0.00 | 0.00 | 74 | 1011.5 |
| 20260509173705 | 28 | 1 | 1.6 | 3.2 | 0.00 | 0.00 | 0.00 | 73 | 1011.5 |
| 20260509173201 | 28 | 358 | 1.6 | 3.2 | 0.00 | 0.00 | 0.00 | 75 | 1011.5 |
| 20260509172657 | 28 | 161 | 3.2 | 3.2 | 0.00 | 0.00 | 0.00 | 75 | 1011.5 |
| 20260509172154 | 28 | 145 | 3.2 | 6.4 | 0.00 | 0.00 | 0.00 | 77 | 1011.5 |
| 20260509171649 | 27 | 142 | 6.4 | 9.7 | 0.00 | 0.00 | 0.00 | 77 | 1011.5 |
| 20260509171146 | 27 | 175 | 4.8 | 6.4 | 0.00 | 0.00 | 0.00 | 77 | 1011.2 |
| 20260509170643 | 28 | 205 | 6.4 | 11.3 | 0.00 | 0.00 | 0.00 | 77 | 1011.2 |
| 20260509170139 | 27 | 166 | 4.8 | 6.4 | 0.00 | 0.00 | 0.00 | 76 | 1011.5 |
| 20260509165637 | 27 | 154 | 3.2 | 4.8 | 0.00 | 0.00 | 0.00 | 77 | 1011.9 |
| 20260509165133 | 27 | 329 | 3.2 | 6.4 | 0.00 | 0.00 | 0.00 | 77 | 1011.9 |
| 20260509164629 | 27 | 300 | 1.6 | 3.2 | 0.00 | 0.00 | 0.00 | 78 | 1011.9 |
| 20260509164125 | 27 | 301 | 3.2 | 6.4 | 0.00 | 0.00 | 0.00 | 78 | 1011.9 |
| 20260509163623 | 27 | 301 | 3.2 | 4.8 | 0.00 | 0.00 | 0.00 | 77 | 1011.9 |
| 20260509163118 | 27 | 309 | 0.0 | 0.0 | 0.00 | 0.00 | 0.00 | 76 | 1011.9 |
| 20260509162616 | 27 | 308 | 0.0 | 3.2 | 0.00 | 0.00 | 0.00 | 76 | 1012.2 |
| 20260509162112 | 27 | 308 | 4.8 | 4.8 | 0.00 | 0.00 | 0.00 | 76 | 1011.9 |
| 20260509161608 | 27 | 262 | 0.0 | 3.2 | 0.00 | 0.00 | 0.00 | 78 | 1012.2 |
| 20260509161108 | 27 | 262 | 0.0 | 0.0 | 0.00 | 0.00 | 0.00 | 79 | 1012.2 |
| 20260509160605 | 27 | 327 | 0.0 | 1.6 | 0.00 | 0.00 | 0.00 | 79 | 1012.2 |
| 20260509160100 | 26 | 327 | 0.0 | 1.6 | 0.00 | 0.00 | 0.00 | 79 | 1012.2 |
| 20260509155556 | 26 | 327 | 0.0 | 1.6 | 0.00 | 0.00 | 0.00 | 80 | 1012.5 |
| 20260509155053 | 26 | 327 | 0.0 | 3.2 | 0.00 | 0.00 | 0.00 | 80 | 1012.5 |
| 20260509154549 | 26 | 324 | 0.0 | 3.2 | 0.00 | 0.00 | 0.00 | 81 | 1012.2 |
| 20260509154046 | 26 | 130 | 1.6 | 3.2 | 0.00 | 0.00 | 0.00 | 82 | 1012.2 |
| 20260509153543 | 26 | 125 | 0.0 | 0.0 | 0.00 | 0.00 | 0.00 | 83 | 1012.2 |
| 20260509153040 | 26 | 156 | 6.4 | 8.0 | 0.00 | 0.00 | 0.00 | 83 | 1012.2 |
| 20260509152536 | 25 | 161 | 4.8 | 6.4 | 0.00 | 0.00 | 0.00 | 84 | 1011.9 |
| 20260509152033 | 25 | 131 | 3.2 | 9.7 | 0.00 | 0.00 | 0.00 | 84 | 1012.2 |
| 20260509151529 | 25 | 208 | 6.4 | 11.3 | 0.00 | 0.00 | 0.00 | 85 | 1011.9 |
| 20260509151027 | 25 | 69 | 1.6 | 3.2 | 0.00 | 0.00 | 0.00 | 86 | 1011.5 |
| 20260509150524 | 25 | 163 | 4.8 | 6.4 | 0.00 | 0.00 | 0.00 | 87 | 1011.9 |
| 20260509150023 | 25 | 180 | 6.4 | 8.0 | 0.00 | 0.00 | 0.00 | 87 | 1011.9 |
| 20260509145518 | 25 | 167 | 3.2 | 6.4 | 0.00 | 0.00 | 0.00 | 88 | 1011.9 |
| 20260509145013 | 25 | 122 | 1.6 | 4.8 | 0.00 | 0.00 | 0.00 | 89 | 1011.9 |
| 20260509144511 | 24 | 190 | 3.2 | 4.8 | 0.00 | 0.00 | 0.00 | 89 | 1011.9 |
| 20260509144008 | 24 | 156 | 1.6 | 3.2 | 0.00 | 0.00 | 0.00 | 90 | 1011.9 |
| 20260509143505 | 24 | 151 | 3.2 | 6.4 | 0.00 | 0.00 | 0.00 | 90 | 1011.9 |
| 20260509143003 | 24 | 183 | 3.2 | 4.8 | 0.00 | 0.00 | 0.00 | 90 | 1011.9 |
| 20260509142458 | 24 | 133 | 3.2 | 4.8 | 0.00 | 0.00 | 0.00 | 90 | 1011.5 |
| 20260509141953 | 24 | 179 | 1.6 | 3.2 | 0.00 | 0.00 | 0.00 | 90 | 1011.5 |
| 20260509141450 | 24 | 161 | 3.2 | 4.8 | 0.00 | 0.00 | 0.00 | 90 | 1011.2 |
| 20260509140947 | 23 | 216 | 4.8 | 6.4 | 0.00 | 0.00 | 0.00 | 91 | 1011.5 |
| 20260509140443 | 23 | 126 | 3.2 | 4.8 | 0.00 | 0.00 | 0.00 | 92 | 1011.5 |
| 20260509135942 | 23 | 202 | 1.6 | 3.2 | 0.00 | 0.00 | 0.00 | 92 | 1011.5 |
| 20260509135439 | 23 | 151 | 3.2 | 6.4 | 0.00 | 0.00 | 0.00 | 93 | 1011.9 |
| 20260509134936 | 23 | 163 | 3.2 | 4.8 | 0.00 | 0.00 | 0.00 | 94 | 1011.9 |
| 20260509134433 | 23 | 190 | 1.6 | 3.2 | 0.00 | 0.00 | 0.00 | 94 | 1011.9 |
| 20260509133931 | 23 | 156 | 0.0 | 1.6 | 0.00 | 0.00 | 0.00 | 95 | 1011.9 |
| 20260509133427 | 23 | 159 | 0.0 | 0.0 | 0.00 | 0.00 | 0.00 | 95 | 1011.9 |
| 20260509132926 | 22 | 217 | 1.6 | 3.2 | 0.00 | 0.00 | 0.00 | 95 | 1011.9 |
| 20260509132423 | 22 | 164 | 3.2 | 3.2 | 0.00 | 0.00 | 0.00 | 95 | 1011.9 |
| 20260509131920 | 22 | 146 | 3.2 | 3.2 | 0.00 | 0.00 | 0.00 | 96 | 1012.2 |
| 20260509131417 | 22 | 41 | 0.0 | 0.0 | 0.00 | 0.00 | 0.00 | 96 | 1012.2 |
| 20260509130914 | 22 | 35 | 0.0 | 1.6 | 0.00 | 0.00 | 0.00 | 96 | 1012.2 |
| 20260509130409 | 22 | 37 | 0.0 | 1.6 | 0.00 | 0.00 | 0.00 | 96 | 1012.2 |
| 20260509125906 | 22 | 37 | 1.6 | 1.6 | 0.00 | 0.00 | 0.00 | 96 | 1012.2 |
| 20260509125403 | 22 | 88 | 0.0 | 0.0 | 0.00 | 0.00 | 0.00 | 96 | 1012.2 |
| 20260509124859 | 22 | 88 | 0.0 | 0.0 | 0.00 | 0.00 | 0.00 | 96 | 1012.2 |
| 20260509124356 | 22 | 88 | 0.0 | 0.0 | 0.00 | 0.00 | 0.00 | 96 | 1012.2 |
| 20260509123854 | 22 | 88 | 0.0 | 0.0 | 0.00 | 0.00 | 0.00 | 96 | 1012.5 |
| 20260509123351 | 22 | 118 | 0.0 | 0.0 | 0.00 | 0.00 | 0.00 | 96 | 1012.2 |
| 20260509122847 | 22 | 56 | 0.0 | 0.0 | 0.00 | 0.00 | 0.00 | 96 | 1012.2 |
| 20260509122344 | 22 | 56 | 0.0 | 0.0 | 0.00 | 0.00 | 0.00 | 97 | 1012.2 |
| 20260509121840 | 22 | 57 | 3.2 | 3.2 | 0.00 | 0.00 | 0.00 | 96 | 1012.2 |
| 20260509121337 | 22 | 42 | 0.0 | 3.2 | 0.00 | 0.00 | 0.00 | 97 | 1012.2 |
| 20260509120836 | 22 | 79 | 0.0 | 0.0 | 0.00 | 0.00 | 0.00 | 97 | 1011.9 |
| 20260509120333 | 22 | 112 | 0.0 | 0.0 | 0.00 | 0.00 | 0.00 | 97 | 1011.9 |
| 20260509115831 | 22 | 158 | 1.6 | 3.2 | 0.00 | 0.00 | 0.00 | 97 | 1011.9 |
| 20260509115328 | 22 | 152 | 1.6 | 3.2 | 0.00 | 0.00 | 0.00 | 97 | 1011.9 |
| 20260509114826 | 22 | 168 | 0.0 | 0.0 | 0.00 | 0.00 | 0.00 | 97 | 1011.9 |
| 20260509114324 | 22 | 103 | 0.0 | 0.0 | 0.00 | 0.00 | 0.00 | 97 | 1011.9 |
| 20260509113823 | 22 | 161 | 1.6 | 1.6 | 0.00 | 0.00 | 0.00 | 97 | 1011.9 |
| 20260509113320 | 22 | 60 | 0.0 | 0.0 | 0.00 | 0.00 | 0.00 | 97 | 1011.5 |
| 20260509112816 | 22 | 140 | 0.0 | 0.0 | 0.00 | 0.00 | 0.00 | 97 | 1011.5 |
| 20260509112314 | 22 | 141 | 0.0 | 0.0 | 0.00 | 0.00 | 0.00 | 96 | 1011.5 |
| 20260509111811 | 22 | 148 | 0.0 | 0.0 | 0.00 | 0.00 | 0.00 | 96 | 1011.5 |
| 20260509111308 | 22 | 151 | 0.0 | 0.0 | 0.00 | 0.00 | 0.00 | 96 | 1011.5 |
| 20260509110805 | 22 | 173 | 3.2 | 3.2 | 0.00 | 0.00 | 0.00 | 96 | 1011.5 |
| 20260509110301 | 22 | 124 | 0.0 | 0.0 | 0.00 | 0.00 | 0.00 | 96 | 1011.5 |
| 20260509105800 | 22 | 168 | 0.0 | 0.0 | 0.00 | 0.00 | 0.00 | 96 | 1011.2 |
| 20260509105257 | 22 | 125 | 0.0 | 0.0 | 0.00 | 0.00 | 0.00 | 96 | 1011.2 |
| 20260509104754 | 22 | 213 | 0.0 | 0.0 | 0.00 | 0.00 | 0.00 | 96 | 1011.5 |
| 20260509104250 | 22 | 213 | 0.0 | 0.0 | 0.00 | 0.00 | 0.00 | 96 | 1011.5 |
| 20260509103749 | 22 | 151 | 3.2 | 4.8 | 0.00 | 0.00 | 0.00 | 96 | 1011.5 |
| 20260509103245 | 22 | 301 | 0.0 | 0.0 | 0.00 | 0.00 | 0.00 | 96 | 1011.9 |
| 20260509102744 | 22 | 347 | 0.0 | 0.0 | 0.00 | 0.00 | 0.00 | 96 | 1011.9 |
| 20260509102241 | 22 | 351 | 0.0 | 0.0 | 0.00 | 0.00 | 0.00 | 96 | 1011.9 |
| 20260509101737 | 22 | 312 | 3.2 | 3.2 | 0.00 | 0.00 | 0.00 | 96 | 1011.9 |
| 20260509101233 | 22 | 95 | 0.0 | 0.0 | 0.00 | 0.00 | 0.00 | 96 | 1011.9 |
| 20260509100731 | 22 | 134 | 0.0 | 0.0 | 0.00 | 0.00 | 0.00 | 96 | 1011.9 |
| 20260509100228 | 22 | 122 | 0.0 | 0.0 | 0.00 | 0.00 | 0.00 | 96 | 1011.5 |
| 20260509095724 | 22 | 66 | 0.0 | 1.6 | 0.00 | 0.00 | 0.00 | 95 | 1011.2 |
| 20260509095222 | 22 | 331 | 1.6 | 3.2 | 0.00 | 0.00 | 0.00 | 95 | 1011.5 |
| 20260509094719 | 22 | 338 | 1.6 | 3.2 | 0.00 | 0.00 | 0.00 | 95 | 1011.5 |
| 20260509094215 | 22 | 60 | 0.0 | 0.0 | 0.00 | 0.00 | 0.00 | 95 | 1011.5 |
| 20260509093714 | 22 | 60 | 0.0 | 0.0 | 0.00 | 0.00 | 0.00 | 95 | 1011.2 |
| 20260509093210 | 22 | 225 | 0.0 | 0.0 | 0.00 | 0.00 | 0.00 | 95 | 1011.2 |
| 20260509092709 | 22 | 130 | 0.0 | 0.0 | 0.00 | 0.00 | 0.00 | 95 | 1011.2 |
| 20260509092207 | 22 | 142 | 0.0 | 0.0 | 0.00 | 0.00 | 0.00 | 95 | 1011.5 |
| 20260509091705 | 22 | 19 | 0.0 | 0.0 | 0.00 | 0.00 | 0.00 | 95 | 1011.9 |
| 20260509091200 | 22 | 19 | 0.0 | 0.0 | 0.00 | 0.00 | 0.00 | 95 | 1011.9 |
| 20260509090658 | 22 | 18 | 0.0 | 0.0 | 0.00 | 0.00 | 0.00 | 95 | 1011.9 |
| 20260509090155 | 22 | 18 | 0.0 | 0.0 | 0.00 | 0.00 | 0.00 | 95 | 1011.9 |
| 20260509085653 | 22 | 18 | 0.0 | 0.0 | 0.00 | 0.00 | 0.00 | 95 | 1011.9 |
| 20260509085149 | 22 | 18 | 0.0 | 0.0 | 0.00 | 0.00 | 0.00 | 95 | 1011.9 |
| 20260509084646 | 22 | 18 | 0.0 | 0.0 | 0.00 | 0.00 | 0.00 | 95 | 1011.9 |
| 20260509084143 | 22 | 18 | 0.0 | 0.0 | 0.00 | 0.00 | 0.00 | 95 | 1011.9 |
| 20260509083641 | 22 | 102 | 0.0 | 0.0 | 0.00 | 0.00 | 0.00 | 95 | 1011.9 |
| 20260509083137 | 22 | 116 | 0.0 | 0.0 | 0.00 | 0.00 | 0.00 | 95 | 1011.9 |
| 20260509082634 | 22 | 153 | 0.0 | 0.0 | 0.00 | 0.00 | 0.00 | 95 | 1011.9 |
| 20260509082131 | 22 | 159 | 0.0 | 0.0 | 0.00 | 0.00 | 0.00 | 95 | 1011.5 |
| 20260509081628 | 22 | 136 | 0.0 | 0.0 | 0.00 | 0.00 | 0.00 | 95 | 1011.5 |
| 20260509081125 | 22 | 145 | 1.6 | 1.6 | 0.00 | 0.00 | 0.00 | 95 | 1011.9 |
| 20260509080623 | 22 | 115 | 0.0 | 0.0 | 0.00 | 0.00 | 0.00 | 95 | 1011.9 |
| 20260509080121 | 22 | 338 | 0.0 | 0.0 | 0.00 | 0.00 | 0.00 | 95 | 1011.9 |
| 20260509075618 | 22 | 338 | 0.0 | 0.0 | 0.00 | 0.00 | 0.00 | 95 | 1012.2 |
| 20260509075116 | 22 | 49 | 0.0 | 1.6 | 0.00 | 0.00 | 0.00 | 95 | 1012.2 |
| 20260509074613 | 22 | 225 | 0.0 | 0.0 | 0.00 | 0.00 | 0.00 | 95 | 1011.9 |
| 20260509074109 | 22 | 242 | 3.2 | 3.2 | 0.00 | 0.00 | 0.00 | 95 | 1011.9 |
| 20260509073606 | 22 | 90 | 0.0 | 0.0 | 0.00 | 0.00 | 0.00 | 95 | 1011.9 |
| 20260509073102 | 22 | 109 | 1.6 | 3.2 | 0.00 | 0.00 | 0.00 | 95 | 1011.9 |
| 20260509072559 | 22 | 124 | 3.2 | 6.4 | 0.00 | 0.00 | 0.00 | 95 | 1011.5 |
| 20260509072056 | 22 | 169 | 1.6 | 3.2 | 0.00 | 0.00 | 0.00 | 95 | 1011.5 |
| 20260509071553 | 22 | 131 | 0.0 | 3.2 | 0.00 | 0.00 | 0.00 | 95 | 1011.9 |
| 20260509071050 | 22 | 180 | 4.8 | 6.4 | 0.00 | 0.00 | 0.00 | 95 | 1011.9 |
| 20260509070547 | 22 | 127 | 3.2 | 4.8 | 0.00 | 0.00 | 0.00 | 95 | 1011.5 |
| 20260509070043 | 22 | 121 | 1.6 | 3.2 | 0.00 | 0.00 | 0.00 | 95 | 1011.9 |
| 20260509065539 | 22 | 213 | 3.2 | 6.4 | 0.00 | 0.00 | 0.00 | 95 | 1011.9 |
| 20260509065035 | 22 | 206 | 4.8 | 6.4 | 0.00 | 0.00 | 0.00 | 95 | 1011.9 |
| 20260509064533 | 22 | 204 | 1.6 | 6.4 | 0.00 | 0.00 | 0.00 | 95 | 1011.9 |
| 20260509064032 | 22 | 198 | 6.4 | 8.0 | 0.00 | 0.00 | 0.00 | 95 | 1011.5 |
| 20260509063532 | 22 | 194 | 3.2 | 3.2 | 0.00 | 0.00 | 0.00 | 95 | 1011.5 |
| 20260509063029 | 22 | 154 | 3.2 | 3.2 | 0.00 | 0.00 | 0.00 | 95 | 1011.5 |
| 20260509062526 | 22 | 128 | 3.2 | 6.4 | 0.00 | 0.00 | 0.00 | 95 | 1011.5 |
| 20260509062024 | 22 | 153 | 3.2 | 4.8 | 0.00 | 0.00 | 0.00 | 95 | 1011.9 |
| 20260509061521 | 22 | 134 | 3.2 | 8.0 | 0.00 | 0.00 | 0.00 | 95 | 1011.9 |
| 20260509061018 | 22 | 139 | 0.0 | 3.2 | 0.00 | 0.00 | 0.00 | 95 | 1011.9 |
| 20260509060515 | 22 | 204 | 4.8 | 4.8 | 0.00 | 0.00 | 0.00 | 95 | 1011.9 |
| 20260509060011 | 22 | 183 | 3.2 | 6.4 | 0.00 | 0.00 | 0.00 | 95 | 1011.9 |
| 20260509055506 | 22 | 163 | 1.6 | 4.8 | 0.00 | 0.00 | 0.00 | 95 | 1011.9 |
| 20260509055003 | 22 | 178 | 3.2 | 6.4 | 0.00 | 0.00 | 0.00 | 95 | 1012.2 |
| 20260509054500 | 22 | 182 | 0.0 | 3.2 | 0.00 | 0.00 | 0.00 | 94 | 1012.2 |
| 20260509053958 | 22 | 98 | 0.0 | 3.2 | 0.00 | 0.00 | 0.00 | 94 | 1012.2 |
| 20260509053456 | 22 | 226 | 1.6 | 4.8 | 0.00 | 0.00 | 0.00 | 94 | 1011.9 |
| 20260509052953 | 22 | 210 | 4.8 | 6.4 | 0.00 | 0.00 | 0.00 | 94 | 1012.2 |
| 20260509052450 | 22 | 176 | 6.4 | 9.7 | 0.00 | 0.00 | 0.00 | 94 | 1012.2 |
| 20260509051948 | 22 | 270 | 1.6 | 3.2 | 0.00 | 0.00 | 0.00 | 94 | 1011.9 |
| 20260509051446 | 22 | 152 | 1.6 | 3.2 | 0.00 | 0.00 | 0.00 | 94 | 1011.9 |
| 20260509050943 | 22 | 176 | 3.2 | 6.4 | 0.00 | 0.00 | 0.00 | 94 | 1012.2 |
| 20260509050439 | 22 | 147 | 3.2 | 4.8 | 0.00 | 0.00 | 0.00 | 94 | 1012.2 |
| 20260509045936 | 22 | 155 | 3.2 | 6.4 | 0.00 | 0.43 | 0.43 | 94 | 1012.2 |
| 20260509045433 | 22 | 219 | 6.4 | 12.9 | 0.00 | 0.43 | 0.43 | 93 | 1012.2 |
| 20260509044929 | 22 | 188 | 6.4 | 9.7 | 0.00 | 0.43 | 0.43 | 93 | 1012.2 |
| 20260509044428 | 22 | 183 | 6.4 | 9.7 | 0.00 | 0.43 | 0.43 | 93 | 1011.9 |
| 20260509043925 | 22 | 165 | 4.8 | 6.4 | 0.00 | 0.43 | 0.43 | 93 | 1011.9 |
| 20260509043420 | 22 | 167 | 4.8 | 11.3 | 0.00 | 0.43 | 0.43 | 93 | 1012.2 |
| 20260509042916 | 22 | 177 | 4.8 | 6.4 | 0.00 | 0.43 | 0.43 | 93 | 1011.9 |
| 20260509042413 | 22 | 162 | 3.2 | 6.4 | 0.00 | 0.43 | 0.43 | 93 | 1012.2 |
| 20260509041909 | 22 | 198 | 4.8 | 6.4 | 0.00 | 0.43 | 0.43 | 93 | 1011.9 |
| 20260509041406 | 22 | 163 | 3.2 | 8.0 | 0.00 | 0.43 | 0.43 | 92 | 1011.9 |
| 20260509040904 | 22 | 201 | 3.2 | 3.2 | 0.00 | 0.43 | 0.43 | 92 | 1011.9 |
| 20260509040402 | 22 | 149 | 3.2 | 8.0 | 0.00 | 0.43 | 0.43 | 92 | 1011.9 |
| 20260509035859 | 22 | 174 | 3.2 | 4.8 | 0.00 | 0.43 | 0.43 | 92 | 1011.9 |
| 20260509035356 | 22 | 163 | 3.2 | 3.2 | 0.00 | 0.43 | 0.43 | 92 | 1012.2 |
| 20260509034852 | 22 | 198 | 1.6 | 3.2 | 0.00 | 0.43 | 0.43 | 92 | 1012.2 |
| 20260509034350 | 22 | 163 | 1.6 | 4.8 | 0.00 | 0.43 | 0.43 | 92 | 1012.2 |
| 20260509033846 | 22 | 239 | 3.2 | 4.8 | 0.00 | 0.43 | 0.43 | 92 | 1012.2 |
| 20260509033344 | 22 | 170 | 1.6 | 4.8 | 0.00 | 0.43 | 0.43 | 92 | 1012.2 |
| 20260509032840 | 22 | 142 | 6.4 | 9.7 | 0.00 | 0.43 | 0.43 | 92 | 1011.9 |
| 20260509032338 | 22 | 119 | 3.2 | 4.8 | 0.00 | 0.43 | 0.43 | 91 | 1011.9 |
| 20260509031836 | 22 | 177 | 4.8 | 8.0 | 0.00 | 0.43 | 0.43 | 91 | 1011.9 |
| 20260509031332 | 22 | 193 | 6.4 | 9.7 | 0.00 | 0.43 | 0.43 | 91 | 1011.5 |
| 20260509030830 | 22 | 148 | 3.2 | 3.2 | 0.00 | 0.43 | 0.43 | 91 | 1011.5 |
| 20260509030328 | 22 | 194 | 3.2 | 6.4 | 0.00 | 0.43 | 0.43 | 91 | 1011.5 |
| 20260509025824 | 22 | 170 | 3.2 | 6.4 | 0.00 | 0.43 | 0.43 | 91 | 1011.2 |
| 20260509025320 | 22 | 124 | 3.2 | 6.4 | 0.00 | 0.43 | 0.43 | 91 | 1011.2 |
| 20260509024815 | 22 | 155 | 1.6 | 3.2 | 0.00 | 0.43 | 0.43 | 90 | 1011.2 |
| 20260509024312 | 22 | 152 | 1.6 | 3.2 | 0.00 | 0.43 | 0.43 | 90 | 1011.5 |
| 20260509023809 | 22 | 182 | 3.2 | 6.4 | 0.00 | 0.43 | 0.43 | 89 | 1011.5 |
| 20260509023306 | 22 | 152 | 6.4 | 11.3 | 0.00 | 0.43 | 0.43 | 88 | 1011.5 |
| 20260509022802 | 22 | 164 | 3.2 | 4.8 | 0.00 | 0.43 | 0.43 | 88 | 1011.2 |
| 20260509022300 | 22 | 175 | 4.8 | 8.0 | 0.00 | 0.43 | 0.43 | 87 | 1011.2 |
| 20260509021757 | 22 | 178 | 3.2 | 6.4 | 0.00 | 0.43 | 0.43 | 87 | 1011.2 |
| 20260509021254 | 23 | 170 | 4.8 | 8.0 | 0.00 | 0.43 | 0.43 | 87 | 1011.2 |
| 20260509020752 | 23 | 178 | 1.6 | 3.2 | 0.00 | 0.43 | 0.43 | 87 | 1011.2 |
| 20260509020249 | 23 | 142 | 0.0 | 0.0 | 0.00 | 0.43 | 0.43 | 86 | 1011.2 |
| 20260509015747 | 23 | 170 | 3.2 | 4.8 | 0.00 | 0.43 | 0.43 | 86 | 1011.2 |
| 20260509015245 | 23 | 158 | 1.6 | 4.8 | 0.00 | 0.43 | 0.43 | 86 | 1011.2 |
| 20260509014741 | 23 | 208 | 1.6 | 3.2 | 0.00 | 0.43 | 0.43 | 86 | 1011.2 |
| 20260509014238 | 23 | 170 | 4.8 | 9.7 | 0.00 | 0.43 | 0.43 | 86 | 1011.2 |
| 20260509013735 | 23 | 160 | 0.0 | 3.2 | 0.00 | 0.43 | 0.43 | 86 | 1011.2 |
| 20260509013230 | 23 | 171 | 0.0 | 1.6 | 0.00 | 0.43 | 0.43 | 86 | 1010.8 |
| 20260509012727 | 23 | 91 | 1.6 | 3.2 | 0.00 | 0.43 | 0.43 | 86 | 1011.2 |
| 20260509012224 | 23 | 100 | 0.0 | 0.0 | 0.00 | 0.43 | 0.43 | 86 | 1011.2 |
| 20260509011722 | 23 | 117 | 0.0 | 1.6 | 0.00 | 0.43 | 0.43 | 85 | 1010.8 |
| 20260509011219 | 23 | 107 | 3.2 | 4.8 | 0.00 | 0.43 | 0.43 | 85 | 1010.8 |
| 20260509010717 | 23 | 145 | 1.6 | 3.2 | 0.00 | 0.43 | 0.43 | 85 | 1010.5 |
| 20260509010213 | 23 | 93 | 1.6 | 3.2 | 0.00 | 0.43 | 0.43 | 84 | 1010.5 |
| 20260509005710 | 23 | 300 | 1.6 | 3.2 | 0.00 | 0.43 | 0.43 | 85 | 1010.5 |
| 20260509005207 | 23 | 175 | 1.6 | 4.8 | 0.00 | 0.43 | 0.43 | 84 | 1010.5 |
| 20260509004702 | 23 | 127 | 1.6 | 1.6 | 0.00 | 0.43 | 0.43 | 84 | 1010.5 |
| 20260509004200 | 23 | 77 | 0.0 | 3.2 | 0.00 | 0.43 | 0.43 | 84 | 1010.5 |
| 20260509003658 | 23 | 71 | 3.2 | 8.0 | 0.00 | 0.43 | 0.43 | 84 | 1010.8 |
| 20260509003155 | 23 | 216 | 1.6 | 3.2 | 0.00 | 0.43 | 0.43 | 84 | 1010.8 |
| 20260509002652 | 23 | 93 | 0.0 | 3.2 | 0.00 | 0.43 | 0.43 | 84 | 1010.8 |
| 20260509002150 | 23 | 188 | 4.8 | 6.4 | 0.00 | 0.43 | 0.43 | 83 | 1010.8 |
| 20260509001647 | 24 | 166 | 3.2 | 6.4 | 0.00 | 0.43 | 0.43 | 82 | 1010.8 |
| 20260509001143 | 24 | 170 | 1.6 | 3.2 | 0.00 | 0.43 | 0.43 | 81 | 1010.8 |
| 20260509000641 | 24 | 208 | 3.2 | 4.8 | 0.00 | 0.43 | 0.43 | 81 | 1010.8 |
| 20260509000138 | 24 | 154 | 4.8 | 6.4 | 0.00 | 0.43 | 0.43 | 80 | 1010.8 |
| 20260508235635 | 24 | 295 | 0.0 | 0.0 | 0.00 | 0.43 | 0.43 | 81 | 1010.8 |
| 20260508235131 | 24 | 30 | 0.0 | 0.0 | 0.00 | 0.43 | 0.43 | 80 | 1011.2 |
| 20260508234629 | 24 | 148 | 1.6 | 4.8 | 0.00 | 0.43 | 0.43 | 81 | 1011.2 |
| 20260508234125 | 24 | 340 | 0.0 | 1.6 | 0.00 | 0.43 | 0.43 | 81 | 1011.2 |
| 20260508233625 | 25 | 191 | 3.2 | 6.4 | 0.00 | 0.43 | 0.43 | 80 | 1011.2 |
| 20260508233122 | 25 | 173 | 1.6 | 4.8 | 0.00 | 0.43 | 0.43 | 80 | 1011.2 |
| 20260508232619 | 25 | 270 | 1.6 | 6.4 | 0.00 | 0.43 | 0.43 | 80 | 1010.8 |
| 20260508232115 | 25 | 175 | 3.2 | 6.4 | 0.00 | 0.43 | 0.43 | 81 | 1010.8 |
| 20260508231613 | 25 | 315 | 0.0 | 3.2 | 0.00 | 0.43 | 0.43 | 81 | 1010.8 |
| 20260508231110 | 25 | 327 | 1.6 | 3.2 | 0.00 | 0.43 | 0.43 | 82 | 1010.8 |
| 20260508230606 | 25 | 182 | 3.2 | 6.4 | 0.00 | 0.43 | 0.43 | 81 | 1010.8 |
| 20260508225601 | 25 | 234 | 3.2 | 4.8 | 0.00 | 0.43 | 0.43 | 80 | 1010.8 |
| 20260508225057 | 25 | 17 | 4.8 | 6.4 | 0.00 | 0.43 | 0.43 | 81 | 1010.8 |
| 20260508224555 | 25 | 18 | 3.2 | 3.2 | 0.00 | 0.43 | 0.43 | 81 | 1010.8 |
| 20260508224052 | 25 | 11 | 0.0 | 1.6 | 0.00 | 0.43 | 0.43 | 81 | 1010.8 |
| 20260508223550 | 25 | 105 | 1.6 | 4.8 | 0.00 | 0.43 | 0.43 | 81 | 1010.5 |
| 20260508223047 | 25 | 168 | 3.2 | 6.4 | 0.00 | 0.43 | 0.43 | 80 | 1010.8 |
| 20260508222544 | 25 | 177 | 4.8 | 6.4 | 0.00 | 0.43 | 0.43 | 80 | 1010.8 |
| 20260508222041 | 25 | 170 | 1.6 | 3.2 | 0.00 | 0.43 | 0.43 | 80 | 1010.8 |
| 20260508221537 | 25 | 177 | 3.2 | 4.8 | 0.00 | 0.43 | 0.43 | 79 | 1010.8 |
| 20260508221033 | 25 | 199 | 4.8 | 6.4 | 0.00 | 0.43 | 0.43 | 79 | 1010.8 |
| 20260508220530 | 25 | 182 | 3.2 | 4.8 | 0.00 | 0.43 | 0.43 | 78 | 1010.8 |
| 20260508220026 | 25 | 185 | 4.8 | 6.4 | 0.00 | 0.43 | 0.43 | 78 | 1010.8 |
| 20260508215523 | 25 | 36 | 1.6 | 3.2 | 0.00 | 0.43 | 0.43 | 80 | 1010.8 |
| 20260508215020 | 25 | 187 | 3.2 | 3.2 | 0.00 | 0.43 | 0.43 | 79 | 1010.8 |
| 20260508214518 | 25 | 205 | 3.2 | 3.2 | 0.00 | 0.43 | 0.43 | 79 | 1010.8 |
| 20260508214014 | 25 | 171 | 3.2 | 4.8 | 0.00 | 0.43 | 0.43 | 79 | 1010.8 |
| 20260508213512 | 25 | 0 | 0.0 | 0.0 | 0.00 | 0.43 | 0.43 | 78 | 1010.8 |
| 20260508213007 | 25 | 2 | 0.0 | 3.2 | 0.00 | 0.43 | 0.43 | 78 | 1010.8 |
| 20260508212503 | 26 | 157 | 6.4 | 9.7 | 0.00 | 0.43 | 0.43 | 77 | 1010.8 |
| 20260508212000 | 26 | 133 | 3.2 | 6.4 | 0.00 | 0.43 | 0.43 | 77 | 1010.8 |